Hays Regional Airport Hays US
ICAO: KHYS
IATA: HYS
Category: Medium
Scheduled Services: No

Elevation: 1999 ft
TransAlt. 18000 ft.

Airport Communications:
AWOS 3:125.525
KANSAS CITY CNTR:124.4
WICHITA RDO:122.3
CTAF/UNICOM:122.8

KHYS Zoom In..

If you have problems with the map follow the link
https://www.worldairports.se/pages/airport.php?
ICAO=KHYS

Runways:

(A) RW 04 length 4501 ft width 75 ft
---- / hdg 40

(B) RW 16 length 6501 ft width 100 ft
---- / hdg 159

(C) RW 22 length 4501 ft width 75 ft
---- / hdg 220

(D) RW 34 length 6501 ft width 100 ft
ILS 111.50 / hdg 339

Location; KHYS
Day. 19 / Time. 12.56 Zulu
* Altimeter: 30.12
* Temperature: -03° c. -26.6°f.
* Wind from: 310° Speed 07 kn.
Dewpoint: -05° c.
Visibility: 10 Statute Miles.
Clouds: Clear (automated report).

KHYS 191256Z AUTO 31007KT 10SM CLR M03/M05 A3012 RMK AO2 SLP220 T10331050 FZRANO


Wind From 310°
Speed 07 kn.

 
 
jpsmedia.com for Web Design worldairports.se 2018   terms of use